createdAt,value
2023-05-13T00:02:22.623Z,4.80
2023-05-13T00:05:10.346Z,3.58
2023-05-13T00:08:02.255Z,3.42
2023-05-13T00:10:49.934Z,3.75
2023-05-13T00:13:37.865Z,3.42
2023-05-13T00:16:27.909Z,3.53
2023-05-13T00:19:15.674Z,3.65
2023-05-13T00:22:03.450Z,3.92
2023-05-13T00:24:51.184Z,3.75
2023-05-13T00:27:38.902Z,4.18
2023-05-13T00:30:26.496Z,5.03
2023-05-13T00:33:14.531Z,4.13
2023-05-13T00:36:02.487Z,4.13
2023-05-13T00:38:52.685Z,4.75
2023-05-13T00:41:40.453Z,3.60
2023-05-13T00:44:28.727Z,3.83
2023-05-13T00:47:17.455Z,4.78
2023-05-13T00:50:05.749Z,4.15
2023-05-13T00:52:57.987Z,3.65
2023-05-13T00:55:46.613Z,3.95
2023-05-13T00:58:34.704Z,4.20
2023-05-13T01:02:00.104Z,4.20
2023-05-13T01:05:03.373Z,3.97
2023-05-13T01:08:03.214Z,3.88
2023-05-13T01:10:54.162Z,3.55
2023-05-13T01:13:45.235Z,4.43
2023-05-13T01:16:44.872Z,4.78
2023-05-13T01:19:54.910Z,5.03
2023-05-13T01:22:42.851Z,4.70
2023-05-13T01:25:31.784Z,4.53
2023-05-13T01:28:19.656Z,4.15
2023-05-13T01:34:00.760Z,5.05
2023-05-13T01:36:50.214Z,3.53
2023-05-13T01:39:41.164Z,4.70
2023-05-13T01:42:35.090Z,4.30
2023-05-13T01:45:22.894Z,3.72
2023-05-13T01:48:10.719Z,4.88
2023-05-13T01:51:07.686Z,5.72
2023-05-13T01:53:57.905Z,6.72
2023-05-13T01:56:46.672Z,7.18
2023-05-13T01:59:34.476Z,6.10
2023-05-13T02:02:22.239Z,5.55
2023-05-13T02:05:14.088Z,5.75
2023-05-13T02:08:01.820Z,6.70
2023-05-13T02:10:59.816Z,6.90
2023-05-13T02:13:49.586Z,6.75
2023-05-13T02:16:39.975Z,7.20
2023-05-13T02:19:27.786Z,7.93
2023-05-13T02:22:15.663Z,9.52
2023-05-13T02:25:04.981Z,9.48
2023-05-13T02:27:52.912Z,10.55
2023-05-13T02:30:40.734Z,10.27
2023-05-13T02:33:28.471Z,9.80
2023-05-13T02:36:16.359Z,10.18
2023-05-13T02:39:04.603Z,9.60
2023-05-13T02:41:52.934Z,10.00
2023-05-13T02:44:41.049Z,8.98
2023-05-13T02:47:31.620Z,7.80
2023-05-13T02:50:24.233Z,8.02
2023-05-13T02:53:12.828Z,7.22
2023-05-13T02:56:06.603Z,7.90
2023-05-13T02:58:56.324Z,6.93
2023-05-13T03:01:44.320Z,7.50
2023-05-13T03:04:32.285Z,6.03
2023-05-13T03:07:20.143Z,7.18
2023-05-13T03:10:08.432Z,6.47
2023-05-13T03:12:56.520Z,5.65
2023-05-13T03:15:44.728Z,5.30
2023-05-13T03:18:33.261Z,5.45
2023-05-13T03:21:21.896Z,5.32
2023-05-13T03:24:09.769Z,5.35
2023-05-13T03:26:58.286Z,5.40
2023-05-13T03:29:46.314Z,5.65
2023-05-13T03:32:35.037Z,5.80
2023-05-13T03:35:23.322Z,5.22
2023-05-13T03:38:11.500Z,4.80
2023-05-13T03:41:04.312Z,4.95
2023-05-13T03:43:52.254Z,5.45
2023-05-13T03:46:39.969Z,5.97
2023-05-13T03:49:27.708Z,5.50
2023-05-13T03:52:17.015Z,4.53
2023-05-13T03:55:06.808Z,4.18
2023-05-13T03:57:55.555Z,4.35
2023-05-13T04:00:46.972Z,5.22
2023-05-13T04:03:35.249Z,4.97
2023-05-13T04:06:23.336Z,4.82
2023-05-13T04:09:11.285Z,5.03
2023-05-13T04:11:59.179Z,4.20
2023-05-13T04:14:47.050Z,5.57
2023-05-13T04:17:35.954Z,5.43
2023-05-13T04:20:24.246Z,6.35
2023-05-13T04:23:12.025Z,6.30
2023-05-13T04:25:59.705Z,4.95
2023-05-13T04:28:48.116Z,5.45
2023-05-13T04:31:36.007Z,4.28
2023-05-13T04:34:24.239Z,4.07
2023-05-13T04:37:11.924Z,5.43
2023-05-13T04:39:59.871Z,4.93
2023-05-13T04:42:55.007Z,4.88
2023-05-13T04:45:51.121Z,5.28
2023-05-13T04:48:38.880Z,4.65
2023-05-13T04:51:26.959Z,4.63
2023-05-13T04:54:18.055Z,5.30
2023-05-13T04:57:09.658Z,4.90
2023-05-13T05:00:00.431Z,5.68
2023-05-13T05:02:48.201Z,4.45
2023-05-13T05:05:36.137Z,4.95
2023-05-13T05:08:28.962Z,4.47
2023-05-13T05:11:18.228Z,5.65
2023-05-13T05:14:05.995Z,5.35
2023-05-13T05:16:54.044Z,5.22
2023-05-13T05:19:41.996Z,4.72
2023-05-13T05:22:30.787Z,4.25
2023-05-13T05:25:20.820Z,4.30
2023-05-13T05:28:09.503Z,4.47
2023-05-13T05:31:02.312Z,4.68
2023-05-13T05:33:51.802Z,4.60
2023-05-13T05:36:39.494Z,4.63
2023-05-13T05:39:27.420Z,5.25
2023-05-13T05:42:15.173Z,4.50
2023-05-13T05:45:03.164Z,4.70
2023-05-13T05:47:57.962Z,4.70
2023-05-13T05:53:42.487Z,4.05
2023-05-13T05:56:32.506Z,4.93
2023-05-13T05:59:27.199Z,5.35
2023-05-13T06:02:17.231Z,4.88
2023-05-13T06:05:08.585Z,5.05
2023-05-13T06:07:58.656Z,4.18
2023-05-13T06:11:05.214Z,4.38
2023-05-13T06:13:54.396Z,4.75
2023-05-13T06:16:47.036Z,4.55
2023-05-13T06:19:36.796Z,4.38
2023-05-13T06:22:24.557Z,4.57
2023-05-13T06:25:12.658Z,4.15
2023-05-13T06:28:03.001Z,4.05
2023-05-13T06:30:50.991Z,3.78
2023-05-13T06:33:38.810Z,4.38
2023-05-13T06:36:28.882Z,3.92
2023-05-13T06:39:19.695Z,3.30
2023-05-13T06:42:08.134Z,3.13
2023-05-13T06:45:04.330Z,5.75
2023-05-13T06:47:53.514Z,4.07
2023-05-13T06:50:43.795Z,3.63
2023-05-13T06:53:32.209Z,3.33
2023-05-13T06:56:23.275Z,3.65
2023-05-13T06:59:12.158Z,3.20
2023-05-13T07:01:59.805Z,2.80
2023-05-13T07:04:47.753Z,3.13
2023-05-13T07:07:37.872Z,2.60
2023-05-13T07:10:27.792Z,2.63
2023-05-13T07:13:15.681Z,2.53
2023-05-13T07:16:03.639Z,3.20
2023-05-13T07:18:51.400Z,2.63
2023-05-13T07:21:39.522Z,2.25
2023-05-13T07:24:27.287Z,3.55
2023-05-13T07:27:15.064Z,2.83
2023-05-13T07:30:02.810Z,3.60
2023-05-13T07:32:52.015Z,2.50
2023-05-13T07:35:41.414Z,2.28
2023-05-13T07:38:29.088Z,1.92
2023-05-13T07:41:16.875Z,1.50
2023-05-13T07:44:06.104Z,1.92
2023-05-13T07:46:53.971Z,1.90
2023-05-13T07:49:41.648Z,2.00
2023-05-13T07:52:29.409Z,1.50
2023-05-13T07:55:17.460Z,2.63
2023-05-13T07:58:07.591Z,2.33
2023-05-13T08:00:55.534Z,1.25
2023-05-13T08:03:43.427Z,1.50
2023-05-13T08:06:32.830Z,1.98
2023-05-13T08:09:20.674Z,1.55
2023-05-13T08:12:09.722Z,1.83
2023-05-13T08:15:06.466Z,2.58
2023-05-13T08:17:54.918Z,1.83
2023-05-13T08:20:42.870Z,1.30
2023-05-13T08:23:40.946Z,1.23
2023-05-13T08:26:32.688Z,1.33
2023-05-13T08:29:23.668Z,2.20
2023-05-13T08:32:11.446Z,1.48
2023-05-13T08:34:59.569Z,1.05
2023-05-13T08:37:50.308Z,1.17
2023-05-13T08:40:38.642Z,1.00
2023-05-13T08:43:31.446Z,1.40
2023-05-13T08:46:19.788Z,2.28
2023-05-13T08:49:16.267Z,1.33
2023-05-13T08:52:04.355Z,1.38
2023-05-13T08:54:52.121Z,1.23
2023-05-13T08:57:45.602Z,0.88
2023-05-13T09:00:35.035Z,1.30
2023-05-13T09:03:22.839Z,1.20
2023-05-13T09:06:10.516Z,1.65
2023-05-13T09:08:58.505Z,1.80
2023-05-13T09:11:49.022Z,1.10
2023-05-13T09:14:38.242Z,1.08
2023-05-13T09:17:25.975Z,1.75
2023-05-13T09:20:15.524Z,1.10
2023-05-13T09:23:04.437Z,0.85
2023-05-13T09:25:54.994Z,0.98
2023-05-13T09:28:43.909Z,1.38
2023-05-13T09:31:35.692Z,0.85
2023-05-13T09:34:35.208Z,0.98
2023-05-13T09:37:24.923Z,0.95
2023-05-13T09:40:17.972Z,1.55
2023-05-13T09:43:07.492Z,0.93
2023-05-13T09:45:57.053Z,0.88
2023-05-13T09:48:44.819Z,1.20
2023-05-13T09:51:32.472Z,0.70
2023-05-13T09:54:20.052Z,0.88
2023-05-13T09:57:07.814Z,1.45
2023-05-13T10:00:00.139Z,0.70
2023-05-13T10:02:48.224Z,1.10
2023-05-13T10:05:36.523Z,1.25
2023-05-13T10:08:27.386Z,1.17
2023-05-13T10:11:16.442Z,1.00
2023-05-13T10:14:06.670Z,1.55
2023-05-13T10:16:54.821Z,1.85
2023-05-13T10:19:45.338Z,1.20
2023-05-13T10:22:35.014Z,1.10
2023-05-13T10:25:25.819Z,0.90
2023-05-13T10:28:14.908Z,0.70
2023-05-13T10:31:03.150Z,1.30
2023-05-13T10:33:53.438Z,0.68
2023-05-13T10:37:02.310Z,1.10
2023-05-13T10:40:13.119Z,1.10
2023-05-13T10:43:11.689Z,1.30
2023-05-13T10:46:07.025Z,1.00
2023-05-13T10:49:00.044Z,1.17
2023-05-13T10:51:49.510Z,0.93
2023-05-13T10:54:39.112Z,1.17
2023-05-13T10:57:36.773Z,1.30
2023-05-13T11:00:34.766Z,1.23
2023-05-13T11:03:22.414Z,0.82
2023-05-13T11:06:21.490Z,0.73
2023-05-13T11:09:16.280Z,11.45
2023-05-13T11:12:04.321Z,2.72
2023-05-13T11:14:56.419Z,1.20
2023-05-13T11:17:46.453Z,1.23
2023-05-13T11:20:48.725Z,0.80
2023-05-13T11:24:06.126Z,0.88
2023-05-13T11:26:56.585Z,0.73
2023-05-13T11:29:56.129Z,0.85
2023-05-13T11:36:10.705Z,0.77
2023-05-13T11:39:06.808Z,0.73
2023-05-13T11:41:57.716Z,0.88
2023-05-13T11:44:47.403Z,0.50
2023-05-13T11:47:35.152Z,0.65
2023-05-13T11:50:38.594Z,0.60
2023-05-13T11:53:26.338Z,1.08
2023-05-13T11:56:19.510Z,0.65
2023-05-13T11:59:16.917Z,4.45
2023-05-13T12:02:04.758Z,1.05
2023-05-13T12:04:53.436Z,1.55
2023-05-13T12:07:43.558Z,2.40
2023-05-13T12:10:31.319Z,3.63
2023-05-13T12:13:23.030Z,5.55
2023-05-13T12:16:10.967Z,1.80
2023-05-13T12:19:06.378Z,1.10
2023-05-13T12:21:54.204Z,0.77
2023-05-13T12:24:41.906Z,0.30
2023-05-13T12:27:29.593Z,0.45
2023-05-13T12:30:18.354Z,0.50
2023-05-13T12:33:06.490Z,0.38
2023-05-13T12:36:20.896Z,0.50
2023-05-13T12:39:11.150Z,0.47
2023-05-13T12:41:59.691Z,0.68
2023-05-13T12:44:47.720Z,0.35
2023-05-13T12:47:51.750Z,0.40
2023-05-13T12:50:39.456Z,0.22
2023-05-13T12:53:27.099Z,0.52
2023-05-13T12:56:15.151Z,0.50
2023-05-13T12:59:02.813Z,0.20
2023-05-13T13:01:51.550Z,0.32
2023-05-13T13:04:39.373Z,0.30
2023-05-13T13:07:27.592Z,0.40
2023-05-13T13:10:15.742Z,0.43
2023-05-13T13:13:03.581Z,2.38
2023-05-13T13:15:54.087Z,0.25
2023-05-13T13:18:42.429Z,0.43
2023-05-13T13:21:30.224Z,0.30
2023-05-13T13:24:17.954Z,0.70
2023-05-13T13:27:10.750Z,0.40
2023-05-13T13:29:58.401Z,0.22
2023-05-13T13:32:46.111Z,0.75
2023-05-13T13:35:36.445Z,0.30
2023-05-13T13:38:24.152Z,0.50
2023-05-13T13:41:11.861Z,0.20
2023-05-13T13:43:59.519Z,0.32
2023-05-13T13:46:47.287Z,0.28
2023-05-13T13:49:37.243Z,0.20
2023-05-13T13:52:28.854Z,0.30
2023-05-13T13:55:16.772Z,0.45
2023-05-13T13:58:07.166Z,0.20
2023-05-13T14:00:54.995Z,0.40
2023-05-13T14:03:42.773Z,0.73
2023-05-13T14:06:31.434Z,0.30
2023-05-13T14:09:19.318Z,0.30
2023-05-13T14:12:07.061Z,0.50
2023-05-13T14:14:54.751Z,0.38
2023-05-13T14:17:42.484Z,0.30
2023-05-13T14:20:30.355Z,0.30
2023-05-13T14:23:18.921Z,0.20
2023-05-13T14:26:08.244Z,0.30
2023-05-13T14:28:57.047Z,0.22
2023-05-13T14:31:44.751Z,0.20
2023-05-13T14:34:34.598Z,0.30
2023-05-13T14:37:22.323Z,0.20
2023-05-13T14:40:10.320Z,0.40
2023-05-13T14:42:57.982Z,0.10
2023-05-13T14:45:45.803Z,0.10
2023-05-13T14:48:33.421Z,0.28
2023-05-13T14:51:21.315Z,0.30
2023-05-13T14:54:09.201Z,0.10
2023-05-13T14:56:56.871Z,0.65
2023-05-13T14:59:44.513Z,0.60
2023-05-13T15:02:32.730Z,0.40
2023-05-13T15:05:20.584Z,3.28
2023-05-13T15:08:09.253Z,0.30
2023-05-13T15:10:56.914Z,1.20
2023-05-13T15:13:44.659Z,0.30
2023-05-13T15:16:32.371Z,2.10
2023-05-13T15:19:20.131Z,1.52
2023-05-13T15:22:07.711Z,1.90
2023-05-13T15:24:55.329Z,2.53
2023-05-13T15:27:44.714Z,0.98
2023-05-13T15:30:36.172Z,7.05
2023-05-13T15:33:23.964Z,1.35
2023-05-13T15:36:11.627Z,2.90
2023-05-13T15:39:00.140Z,2.45
2023-05-13T15:41:48.750Z,0.90
2023-05-13T15:44:36.567Z,1.98
2023-05-13T15:47:24.422Z,4.03
2023-05-13T15:50:12.300Z,5.43
2023-05-13T15:53:00.361Z,3.45
2023-05-13T15:55:48.180Z,1.25
2023-05-13T15:58:35.719Z,12.85
2023-05-13T16:01:23.654Z,8.40
2023-05-13T16:04:11.453Z,2.72
2023-05-13T16:06:59.000Z,0.90
2023-05-13T16:09:46.732Z,4.03
2023-05-13T16:12:34.392Z,8.23
2023-05-13T16:15:22.045Z,3.20
2023-05-13T16:18:09.818Z,0.55
2023-05-13T16:21:01.193Z,0.60
2023-05-13T16:23:51.257Z,0.47
2023-05-13T16:26:41.934Z,0.22
2023-05-13T16:29:29.806Z,0.28
2023-05-13T16:32:17.526Z,0.22
2023-05-13T16:35:05.949Z,0.40
2023-05-13T16:37:54.009Z,0.10
2023-05-13T16:40:45.677Z,0.45
2023-05-13T16:43:40.876Z,0.00
2023-05-13T16:46:47.429Z,0.10
2023-05-13T16:49:41.196Z,0.22
2023-05-13T16:52:32.696Z,0.65
2023-05-13T16:55:22.386Z,0.40
2023-05-13T16:58:17.593Z,0.45
2023-05-13T17:01:06.515Z,0.30
2023-05-13T17:03:54.548Z,0.20
2023-05-13T17:06:45.522Z,0.10
2023-05-13T17:09:33.799Z,0.50
2023-05-13T17:12:21.895Z,0.43
2023-05-13T17:15:13.915Z,2.92
2023-05-13T17:20:49.795Z,2.33
2023-05-13T17:23:37.894Z,0.35
2023-05-13T17:26:27.273Z,0.50
2023-05-13T17:29:15.055Z,0.55
2023-05-13T17:32:03.350Z,0.20
2023-05-13T17:34:51.579Z,0.22
2023-05-13T17:37:42.509Z,0.30
2023-05-13T17:40:33.599Z,0.90
2023-05-13T17:43:21.442Z,0.73
2023-05-13T17:46:09.299Z,0.17
2023-05-13T17:48:57.292Z,0.20
2023-05-13T17:51:45.111Z,0.50
2023-05-13T17:54:33.042Z,0.20
2023-05-13T17:57:21.525Z,0.10
2023-05-13T18:00:09.826Z,0.28
2023-05-13T18:03:00.251Z,0.15
2023-05-13T18:05:48.763Z,0.57
2023-05-13T18:08:39.340Z,0.50
2023-05-13T18:11:27.287Z,0.68
2023-05-13T18:14:15.171Z,1.27
2023-05-13T18:17:03.010Z,1.00
2023-05-13T18:19:50.877Z,0.52
2023-05-13T18:22:39.141Z,0.60
2023-05-13T18:25:29.377Z,0.10
2023-05-13T18:28:22.477Z,0.25
2023-05-13T18:31:10.539Z,0.10
2023-05-13T18:33:58.267Z,0.10
2023-05-13T18:36:46.267Z,0.10
2023-05-13T18:39:34.385Z,0.10
2023-05-13T18:42:24.950Z,0.38
2023-05-13T18:45:12.712Z,0.10
2023-05-13T18:48:00.440Z,0.10
2023-05-13T18:50:48.208Z,0.22
2023-05-13T18:53:36.105Z,0.50
2023-05-13T18:56:27.970Z,0.30
2023-05-13T18:59:15.687Z,0.22
2023-05-13T19:02:05.662Z,0.20
2023-05-13T19:04:53.639Z,0.52
2023-05-13T19:07:42.470Z,0.10
2023-05-13T19:10:39.070Z,0.40
2023-05-13T19:13:36.237Z,0.60
2023-05-13T19:16:34.337Z,0.22
2023-05-13T19:19:22.171Z,0.50
2023-05-13T19:22:12.917Z,0.15
2023-05-13T19:25:00.734Z,0.32
2023-05-13T19:27:49.665Z,0.20
2023-05-13T19:30:38.300Z,0.52
2023-05-13T19:33:26.401Z,0.32
2023-05-13T19:36:14.154Z,0.20
2023-05-13T19:39:04.077Z,0.35
2023-05-13T19:41:51.834Z,0.25
2023-05-13T19:44:39.436Z,0.20
2023-05-13T19:47:27.758Z,0.82
2023-05-13T19:50:15.931Z,0.65
2023-05-13T19:53:03.663Z,0.52
2023-05-13T19:55:51.572Z,0.50
2023-05-13T19:58:41.491Z,0.40
2023-05-13T20:01:32.091Z,0.60
2023-05-13T20:04:19.887Z,0.22
2023-05-13T20:07:09.266Z,0.35
2023-05-13T20:09:57.372Z,0.80
2023-05-13T20:12:47.540Z,0.30
2023-05-13T20:15:35.194Z,0.35
2023-05-13T20:18:23.154Z,0.70
2023-05-13T20:21:14.183Z,0.40
2023-05-13T20:24:02.244Z,0.93
2023-05-13T20:26:49.930Z,0.60
2023-05-13T20:29:39.056Z,0.82
2023-05-13T20:32:26.694Z,0.55
2023-05-13T20:35:14.546Z,0.40
2023-05-13T20:38:08.147Z,0.25
2023-05-13T20:40:56.072Z,1.13
2023-05-13T20:43:43.792Z,0.57
2023-05-13T20:46:31.559Z,1.00
2023-05-13T20:49:19.685Z,1.08
2023-05-13T20:52:09.259Z,0.75
2023-05-13T20:54:57.192Z,0.80
2023-05-13T20:57:44.796Z,0.77
2023-05-13T21:00:34.518Z,0.70
2023-05-13T21:03:22.518Z,0.63
2023-05-13T21:06:11.452Z,0.77
2023-05-13T21:09:02.369Z,0.47
2023-05-13T21:11:49.971Z,0.88
2023-05-13T21:14:37.712Z,0.70
2023-05-13T21:17:26.814Z,0.80
2023-05-13T21:20:14.674Z,1.05
2023-05-13T21:23:07.248Z,0.95
2023-05-13T21:26:12.745Z,1.00
2023-05-13T21:29:18.636Z,0.90
2023-05-13T21:32:12.215Z,1.13
2023-05-13T21:34:59.885Z,1.92
2023-05-13T21:37:50.865Z,2.05
2023-05-13T21:40:40.236Z,2.17
2023-05-13T21:43:28.034Z,0.80
2023-05-13T21:46:15.718Z,1.02
2023-05-13T21:49:03.785Z,1.00
2023-05-13T21:51:51.745Z,1.00
2023-05-13T21:54:39.592Z,0.50
2023-05-13T21:57:27.177Z,0.30
2023-05-13T22:00:18.948Z,0.60
2023-05-13T22:03:06.990Z,0.80
2023-05-13T22:05:54.956Z,0.68
2023-05-13T22:08:42.661Z,0.45
2023-05-13T22:11:30.932Z,0.65
2023-05-13T22:14:18.947Z,1.15
2023-05-13T22:17:09.083Z,0.63
2023-05-13T22:19:57.547Z,0.30
2023-05-13T22:22:45.248Z,0.90
2023-05-13T22:25:33.065Z,0.57
2023-05-13T22:28:20.866Z,0.60
2023-05-13T22:31:08.663Z,0.90
2023-05-13T22:33:59.511Z,0.50
2023-05-13T22:36:50.121Z,0.47
2023-05-13T22:39:40.845Z,1.65
2023-05-13T22:42:28.457Z,0.50
2023-05-13T22:45:16.200Z,1.10
2023-05-13T22:48:04.044Z,1.00
2023-05-13T22:50:54.235Z,0.30
2023-05-13T22:53:41.908Z,0.32
2023-05-13T22:56:29.662Z,0.60
2023-05-13T22:59:17.297Z,0.55
2023-05-13T23:02:05.211Z,0.95
2023-05-13T23:04:53.277Z,0.32
2023-05-13T23:07:41.015Z,0.68
2023-05-13T23:10:29.876Z,0.47
2023-05-13T23:13:19.856Z,0.40
2023-05-13T23:16:07.592Z,0.35
2023-05-13T23:18:56.172Z,0.50
2023-05-13T23:21:43.907Z,0.70
2023-05-13T23:24:33.928Z,0.57
2023-05-13T23:27:21.957Z,0.40
2023-05-13T23:30:10.234Z,0.85
2023-05-13T23:32:57.898Z,0.50
2023-05-13T23:35:45.587Z,0.80
2023-05-13T23:38:33.288Z,0.98
2023-05-13T23:41:22.014Z,1.00
2023-05-13T23:44:09.902Z,0.85
2023-05-13T23:47:00.432Z,0.85
2023-05-13T23:49:48.145Z,0.88
2023-05-13T23:52:36.138Z,0.73
2023-05-13T23:55:23.803Z,1.00
2023-05-13T23:58:11.510Z,0.68
